Aguire, Philippines

5:13 PM +08 on July 25, 2017 (GMT +0800)
BRGY 19, Masintoc | | Change Station

Elev 20 ft 18.08 °N, 120.49 °E | Updated 10 seconds ago

Thunderstorm
Thunderstorm
84.6 °F
Feels Like 89 °F
N
5.6
Wind Variable Wind from South
Gusts 7.4 mph

Today
High -- | Low -- °F
--% Chance of Precip.
Yesterday
High -- | Low -- °F
Precip. -- in
Pressure 29.62 in
Visibility 3.7 miles
Clouds Few 1800 ft
Few 1900 ft
Mostly Cloudy 10000 ft
Heat Index 89 °F
Dew Point 71 °F
Humidity 63%
Rainfall 0.15 in
Snow Depth Not available.
5:34 AM 6:34 PM
Waxing Crescent, 5% visible
METAR RPLI 250900Z 22006KT 6000 TS -SHRA FEW018CB FEW019 BKN100 30/27 Q1003 RMK A2962 CB NE-SE AND OHD
Pressure 29.62 in
Visibility 3.7 miles
Clouds Few 1800 ft
Few 1900 ft
Mostly Cloudy 10000 ft
Heat Index 89 °F
Dew Point 71 °F
Humidity 63%
Rainfall 0.15 in
Snow Depth Not available.
5:34 AM 6:34 PM
Waxing Crescent, 5% visible
METAR RPLI 250900Z 22006KT 6000 TS -SHRA FEW018CB FEW019 BKN100 30/27 Q1003 RMK A2962 CB NE-SE AND OHD

Get Severe Weather Alerts

Thanks for signing up!

Be on the lookout for a verification email in your inbox.

You'll start receiving the daily forecast at 6 AM.

×

10-Day Weather Forecast

No radar image for this location.
×

Almanac

Astronomy

Jul. 25, 2017 Rise Set
Actual Time
Civil Twilight
Nautical Twilight
Astronomical Twilight
Moon
Length of Visible Light
Length of Day
Tomorrow will be .
, % of the Moon is Illuminated

Today's Extremes

Country Highs Country Lows

Community

WunderPhotos

Category 6

Welcome to Category 6. This is the collective home for Weather Underground's featured writeups by Dr. Jeff Masters (right), Bob Henson (left), Chris Burt, and other regular contributors.

Nearby

Air Quality

  Air Quality AQ Index Pollutant
Not available.

Snow Depth

Station Depth Elevation

Earthquake Activity

City Distance Mag. Time & Date
Minimum magnitude displayed is 2.5.

Coastal Water Temperatures

Place Temperature

Stations

Nearby Weather Stations

Station Location Temp. Windchill Dew Point Humidity Wind Precip. Elev Updated Type